Time;durP1;ratioP1;P1;durP2;ratioP2;P2;SDS_P1;SDS_P2;PMS_P1;PMS_P2;Temp;Humidity;BMP_temperature;BMP_pressure;BME280_temperature;BME280_humidity;BME280_pressure;Samples;Min_cycle;Max_cycle;Signal;HPM_P1;HPM_P2
2022/06/06 00:02:04;;;;;;;23.27;18.45;;;;;;;16.58;82.15;100760.44;4981901;28;20369;-74
2022/06/06 00:04:29;;;;;;;23.65;19.27;;;;;;;16.59;81.62;100762.09;4963301;28;20010;-74
2022/06/06 00:06:56;;;;;;;26.73;19.75;;;;;;;16.57;81.78;100765.94;4965983;28;20022;-74
2022/06/06 00:09:22;;;;;;;25.33;20.38;;;;;;;16.54;81.89;100767.16;4971521;28;20193;-72
2022/06/06 00:11:47;;;;;;;23.25;19.77;;;;;;;16.51;82.42;100766.66;4979748;28;20710;-74
2022/06/06 00:14:14;;;;;;;26.00;20.25;;;;;;;16.57;81.89;100772.13;4982239;28;20018;-75
2022/06/06 00:16:39;;;;;;;22.95;19.38;;;;;;;16.62;82.40;100768.94;4945919;28;20026;-75
2022/06/06 00:19:04;;;;;;;26.08;20.48;;;;;;;16.61;82.50;100768.09;4944101;28;20007;-72
2022/06/06 00:21:30;;;;;;;26.00;20.00;;;;;;;16.64;82.90;100769.59;4941511;28;20023;-72
2022/06/06 00:23:59;;;;;;;29.70;21.67;;;;;;;16.55;82.78;100767.97;4937816;28;20450;-73
2022/06/06 00:26:25;;;;;;;28.02;21.63;;;;;;;16.65;82.42;100773.91;4925575;28;20114;-73
2022/06/06 00:28:50;;;;;;;25.80;21.38;;;;;;;16.74;81.97;100772.88;4944890;28;20088;-73
2022/06/06 00:36:44;;;;;;;24.85;20.70;;;;;;;16.68;82.76;100767.38;4989274;28;20068;-73
2022/06/06 00:39:10;;;;;;;26.58;21.02;;;;;;;16.63;82.44;100760.72;4990429;28;20038;-72
2022/06/06 00:41:37;;;;;;;26.95;22.15;;;;;;;16.64;82.92;100756.25;4987091;28;20010;-75
2022/06/06 00:44:08;;;;;;;26.42;21.63;;;;;;;16.68;81.74;100757.53;4952881;28;20045;-75
2022/06/06 00:46:34;;;;;;;26.27;21.08;;;;;;;16.63;82.21;100754.56;4949837;28;20100;-76
2022/06/06 00:49:01;;;;;;;23.75;20.17;;;;;;;16.60;83.09;100766.44;4980603;28;20037;-73
2022/06/06 00:51:26;;;;;;;25.40;21.25;;;;;;;16.57;82.77;100755.25;4967779;28;20115;-74
2022/06/06 00:53:54;;;;;;;24.48;21.08;;;;;;;16.55;82.54;100751.94;4985626;28;20005;-75
2022/06/06 00:56:41;;;;;;;22.20;19.42;;;;;;;16.63;81.64;100751.91;4971590;28;20022;-73
2022/06/06 00:59:10;;;;;;;22.88;18.80;;;;;;;16.59;81.71;100763.94;4970871;28;20025;-72
2022/06/06 01:01:35;;;;;;;21.02;17.42;;;;;;;16.61;81.57;100757.41;4983966;28;20029;-74
2022/06/06 01:04:02;;;;;;;21.42;16.98;;;;;;;16.55;81.72;100763.44;4952347;28;21031;-71
2022/06/06 01:06:29;;;;;;;21.23;17.08;;;;;;;16.56;81.60;100769.63;4972732;28;20320;-74
2022/06/06 01:08:54;;;;;;;20.58;16.83;;;;;;;16.57;82.31;100765.94;4954775;28;20882;-74
2022/06/06 01:11:20;;;;;;;24.55;16.33;;;;;;;16.56;82.41;100753.63;4965041;28;20125;-72
2022/06/06 01:13:45;;;;;;;21.77;16.83;;;;;;;16.48;82.49;100760.66;4988955;28;20194;-72
2022/06/06 01:16:38;;;;;;;20.20;16.13;;;;;;;16.59;82.06;100763.94;4973628;28;20202;-75
2022/06/06 01:19:24;;;;;;;23.00;16.13;;;;;;;16.58;82.57;100751.59;4983306;28;20022;-74
2022/06/06 01:21:56;;;;;;;21.65;16.35;;;;;;;16.58;82.11;100754.25;4936950;28;20046;-75
2022/06/06 01:24:22;;;;;;;20.13;15.60;;;;;;;16.58;82.54;100754.25;5003313;28;20034;-74
2022/06/06 01:27:05;;;;;;;17.92;15.27;;;;;;;16.63;81.34;100754.56;5009562;28;20087;-73
2022/06/06 01:29:36;;;;;;;18.67;14.48;;;;;;;16.59;81.20;100756.75;4991118;28;20052;-73
2022/06/06 01:32:07;;;;;;;20.13;15.15;;;;;;;16.50;81.07;100755.16;4974292;28;20017;-75
2022/06/06 01:34:36;;;;;;;18.70;13.88;;;;;;;16.50;81.63;100755.16;4973515;28;20059;-75
2022/06/06 01:37:02;;;;;;;16.80;13.52;;;;;;;16.57;80.52;100755.25;4998572;28;20590;-75
2022/06/06 01:39:28;;;;;;;19.65;14.73;;;;;;;16.54;80.96;100756.47;5014333;28;20021;-75
2022/06/06 01:42:11;;;;;;;20.95;14.77;;;;;;;16.51;80.82;100755.97;5000351;28;20133;-75
2022/06/06 01:44:43;;;;;;;20.60;14.60;;;;;;;16.54;80.65;100760.94;4964115;28;20880;-74
2022/06/06 01:47:23;;;;;;;20.20;14.70;;;;;;;16.44;80.56;100754.00;4980688;28;20017;-75
2022/06/06 01:49:49;;;;;;;17.75;13.27;;;;;;;16.43;81.36;100754.19;4980341;28;20025;-71
2022/06/06 01:52:15;;;;;;;18.35;13.85;;;;;;;16.43;80.01;100749.66;4997356;28;21008;-75
2022/06/06 01:54:41;;;;;;;17.83;13.13;;;;;;;16.42;79.53;100745.31;4969866;28;20025;-74
2022/06/06 01:57:07;;;;;;;15.88;12.32;;;;;;;16.39;79.77;100751.03;4976210;28;20040;-74
2022/06/06 01:59:33;;;;;;;16.40;13.77;;;;;;;16.37;79.97;100747.72;4978790;28;20030;-71
2022/06/06 02:01:58;;;;;;;17.02;12.65;;;;;;;16.36;80.21;100753.19;5000365;28;20018;-72
2022/06/06 02:04:24;;;;;;;15.40;12.98;;;;;;;16.44;79.64;100748.66;4966063;28;20815;-74
2022/06/06 02:06:50;;;;;;;17.23;12.98;;;;;;;16.48;78.81;100741.97;4961378;28;20017;-74
2022/06/06 02:09:16;;;;;;;15.23;12.35;;;;;;;16.39;79.04;100740.34;4995285;28;20029;-73
2022/06/06 02:11:41;;;;;;;13.77;12.05;;;;;;;16.38;79.51;100741.34;4962132;28;20018;-71
2022/06/06 02:14:07;;;;;;;14.30;11.43;;;;;;;16.35;80.20;100736.34;4999167;28;20025;-72
2022/06/06 02:16:33;;;;;;;16.77;12.13;;;;;;;16.33;79.42;100730.38;4998263;28;20194;-75
2022/06/06 02:18:58;;;;;;;14.00;12.02;;;;;;;16.27;79.44;100747.06;4953681;28;20099;-74
2022/06/06 02:21:24;;;;;;;14.90;11.43;;;;;;;16.17;79.96;100730.44;4979200;28;20022;-75
2022/06/06 02:23:49;;;;;;;15.32;11.65;;;;;;;16.29;80.21;100739.72;4974330;28;20018;-71
2022/06/06 02:26:15;;;;;;;13.48;10.85;;;;;;;16.26;79.39;100732.06;4977909;28;20020;-73
2022/06/06 02:28:41;;;;;;;12.20;10.90;;;;;;;16.29;79.83;100742.41;4964717;28;20014;-74
2022/06/06 02:31:06;;;;;;;14.60;11.27;;;;;;;16.27;79.75;100745.25;4996522;28;20370;-73
2022/06/06 02:33:32;;;;;;;12.45;10.05;;;;;;;16.34;78.52;100740.03;4964007;28;20006;-73
2022/06/06 02:36:00;;;;;;;10.88;9.30;;;;;;;16.32;78.87;100739.38;4960865;28;20061;-74
2022/06/06 02:38:26;;;;;;;11.23;9.60;;;;;;;16.29;79.21;100753.09;4961194;28;20199;-74
2022/06/06 02:40:51;;;;;;;11.82;9.45;;;;;;;16.34;78.44;100750.69;4959792;28;20037;-76
2022/06/06 02:43:18;;;;;;;12.38;9.23;;;;;;;16.37;78.25;100752.19;4997345;28;20220;-74
2022/06/06 02:45:46;;;;;;;10.38;8.82;;;;;;;16.39;78.46;100748.34;4971692;28;20061;-73
2022/06/06 02:48:12;;;;;;;16.80;12.23;;;;;;;16.38;78.30;100746.69;4957034;28;20014;-76
2022/06/06 02:50:38;;;;;;;13.27;11.68;;;;;;;16.42;78.60;100747.16;4942384;28;20021;-74
2022/06/06 02:53:03;;;;;;;15.95;13.27;;;;;;;16.48;79.29;100736.63;4961891;28;20099;-74
2022/06/06 02:55:31;;;;;;;13.35;11.93;;;;;;;16.47;80.86;100729.63;4978674;28;20837;-73
2022/06/06 02:57:56;;;;;;;14.65;11.55;;;;;;;16.39;80.96;100737.66;4979185;28;20505;-75
2022/06/06 03:00:26;;;;;;;14.77;12.45;;;;;;;16.38;78.62;100736.00;4933925;28;20022;-76
2022/06/06 03:02:52;;;;;;;17.73;14.63;;;;;;;16.45;78.31;100738.81;4929240;28;20021;-75
2022/06/06 03:05:18;;;;;;;18.27;15.43;;;;;;;16.38;78.07;100730.66;4961262;28;20025;-73
2022/06/06 03:08:15;;;;;;;16.80;15.05;;;;;;;16.39;77.79;100743.00;4972920;28;20044;-74
2022/06/06 03:10:56;;;;;;;16.27;13.85;;;;;;;16.35;78.52;100741.69;4964375;28;20149;-75
2022/06/06 03:13:42;;;;;;;14.88;11.90;;;;;;;16.41;77.85;100741.00;4999299;28;20018;-73
2022/06/06 03:22:40;;;;;;;9.85;8.85;;;;;;;16.39;77.58;100753.69;4984504;28;20013;-73
2022/06/06 03:25:05;;;;;;;10.20;8.52;;;;;;;16.39;77.33;100755.53;4998616;28;20386;-74
2022/06/06 03:27:52;;;;;;;10.50;9.40;;;;;;;16.29;77.70;100753.09;5001652;28;20923;-75
2022/06/06 03:31:02;;;;;;;10.50;8.52;;;;;;;16.24;78.52;100747.41;4967937;28;20789;-75
2022/06/06 03:33:52;;;;;;;9.20;8.30;;;;;;;16.24;77.35;100748.25;4992918;28;20326;-74
2022/06/06 03:36:46;;;;;;;9.52;7.72;;;;;;;16.26;77.89;100753.44;4984656;28;20025;-71
2022/06/06 03:39:12;;;;;;;8.40;7.40;;;;;;;16.26;77.40;100759.59;4978411;28;20125;-74
2022/06/06 03:41:47;;;;;;;8.13;7.32;;;;;;;16.25;77.42;100762.44;4981792;28;20015;-75
2022/06/06 03:44:30;;;;;;;9.95;7.30;;;;;;;16.24;77.89;100750.91;4983953;28;20003;-75
2022/06/06 03:47:00;;;;;;;7.80;7.00;;;;;;;16.21;78.05;100758.47;4979962;28;20404;-71
2022/06/06 03:49:40;;;;;;;7.63;6.80;;;;;;;16.16;78.01;100758.97;4980212;28;20049;-73
2022/06/06 03:52:16;;;;;;;7.88;6.68;;;;;;;16.17;77.39;100767.81;4966237;28;20593;-71
2022/06/06 03:55:06;;;;;;;6.97;6.38;;;;;;;16.10;78.18;100768.50;4963179;28;20011;-74
2022/06/06 03:57:32;;;;;;;9.82;6.55;;;;;;;16.07;78.57;100766.16;4967970;28;20025;-75
2022/06/06 04:00:00;;;;;;;7.13;6.40;;;;;;;16.13;77.98;100769.97;4945449;28;20003;-74
2022/06/06 04:02:28;;;;;;;7.03;6.38;;;;;;;16.09;77.38;100769.50;4948261;28;20338;-71
2022/06/06 04:04:54;;;;;;;8.20;6.25;;;;;;;16.05;77.19;100784.22;4948290;28;20018;-73
2022/06/06 04:07:19;;;;;;;6.57;5.97;;;;;;;16.07;76.13;100794.72;4966891;28;20014;-73
2022/06/06 04:09:47;;;;;;;6.10;5.60;;;;;;;16.06;76.17;100785.88;4967842;28;20092;-72
2022/06/06 04:12:40;;;;;;;8.18;6.00;;;;;;;16.11;76.53;100778.16;4984223;28;20231;-74
2022/06/06 04:16:00;;;;;;;6.40;5.80;;;;;;;16.11;76.96;100788.84;4983261;28;20052;-74
2022/06/06 04:18:59;;;;;;;6.40;5.80;;;;;;;16.16;76.68;100787.50;4923102;28;20150;-74
2022/06/06 04:21:31;;;;;;;8.85;5.85;;;;;;;16.09;77.26;100785.53;4981058;28;20006;-74
2022/06/06 04:24:06;;;;;;;7.88;6.20;;;;;;;16.09;77.13;100782.84;4984009;28;20065;-74
2022/06/06 04:26:40;;;;;;;6.38;5.78;;;;;;;16.29;76.29;100780.59;4983453;28;21451;-74
2022/06/06 04:29:15;;;;;;;5.97;5.47;;;;;;;16.26;75.41;100791.63;4984658;28;20963;-74
2022/06/06 04:32:08;;;;;;;5.75;5.20;;;;;;;16.24;75.32;100784.81;4968398;28;20041;-74
2022/06/06 04:34:38;;;;;;;5.93;5.32;;;;;;;16.31;75.35;100789.28;4956311;28;20365;-74
2022/06/06 04:37:15;;;;;;;6.90;5.55;;;;;;;16.36;75.41;100791.44;4988412;28;20144;-72
2022/06/06 04:40:10;;;;;;;5.82;5.30;;;;;;;16.38;75.00;100781.41;4988410;28;20080;-72
2022/06/06 04:42:44;;;;;;;6.20;5.57;;;;;;;16.22;74.71;100786.81;5027164;28;20022;-74
2022/06/06 04:45:16;;;;;;;;;;;;;;;16.16;74.82;100783.00;4992629;28;20025;-74
2022/06/06 04:47:42;;;;;;;6.22;5.63;;;;;;;16.23;74.50;100778.66;4992012;28;19905;-71
2022/06/06 04:50:10;;;;;;;5.53;5.03;;;;;;;16.32;74.32;100784.78;4979170;28;20488;-72
2022/06/06 04:52:37;;;;;;;6.25;5.65;;;;;;;16.31;74.94;100775.94;5030189;28;20010;-75
2022/06/06 04:55:05;;;;;;;6.05;5.47;;;;;;;16.30;74.42;100779.59;4991004;28;20043;-71
2022/06/06 04:57:30;;;;;;;5.60;5.15;;;;;;;16.37;74.78;100771.75;4963135;28;20007;-75
2022/06/06 04:59:57;;;;;;;5.50;5.07;;;;;;;16.36;74.12;100787.91;4945713;28;20187;-74
2022/06/06 05:02:22;;;;;;;5.70;5.20;;;;;;;16.45;73.96;100794.91;4937180;28;20906;-73
2022/06/06 05:04:48;;;;;;;5.93;5.43;;;;;;;16.41;73.63;100799.78;4938165;28;20378;-73
2022/06/06 05:07:26;;;;;;;6.35;5.75;;;;;;;16.33;73.23;100799.81;4951336;28;20376;-74
2022/06/06 05:09:57;;;;;;;6.70;6.05;;;;;;;16.41;72.63;100797.09;4934655;28;20018;-73
2022/06/06 05:13:02;;;;;;;5.88;5.43;;;;;;;16.44;72.35;100810.09;4952706;28;20133;-74
2022/06/06 05:15:53;;;;;;;5.97;5.45;;;;;;;16.34;72.83;100812.13;4969832;28;20655;-73
2022/06/06 05:18:30;;;;;;;6.07;5.53;;;;;;;16.41;72.75;100817.63;4941394;28;20022;-73
2022/06/06 05:21:05;;;;;;;7.35;5.97;;;;;;;16.36;72.63;100817.28;4970831;28;20049;-73
2022/06/06 05:23:47;;;;;;;6.60;6.00;;;;;;;16.39;71.82;100820.47;4969111;28;20255;-73
2022/06/06 05:26:28;;;;;;;6.32;5.72;;;;;;;16.48;71.13;100822.09;4933834;28;20010;-73
2022/06/06 05:28:59;;;;;;;5.95;5.47;;;;;;;16.49;70.85;100837.09;4951668;28;20148;-73
2022/06/06 05:31:39;;;;;;;5.88;5.28;;;;;;;16.26;70.60;100844.22;4950158;28;20327;-74
2022/06/06 05:34:25;;;;;;;6.38;5.03;;;;;;;16.21;70.06;100844.72;4949836;28;20751;-73
2022/06/06 05:37:16;;;;;;;5.38;4.85;;;;;;;16.20;70.33;100845.75;4920391;28;20076;-74
2022/06/06 05:40:02;;;;;;;4.80;4.50;;;;;;;16.09;71.10;100844.25;4945853;28;20034;-74
2022/06/06 05:42:49;;;;;;;4.90;4.40;;;;;;;16.09;70.71;100846.94;4972109;28;20033;-73
2022/06/06 05:45:22;;;;;;;5.55;4.50;;;;;;;16.28;70.15;100855.56;4933996;28;20664;-73
2022/06/06 05:47:57;;;;;;;4.88;4.38;;;;;;;16.26;70.01;100849.56;4956624;28;20011;-73
2022/06/06 05:50:28;;;;;;;7.13;4.20;;;;;;;16.36;70.20;100852.84;4969297;28;20022;-73
2022/06/06 05:53:35;;;;;;;4.45;4.05;;;;;;;16.29;69.59;100830.53;4970270;28;20027;-73
2022/06/06 05:56:25;;;;;;;4.10;3.78;;;;;;;16.37;69.94;100840.31;4941024;28;20022;-74
2022/06/06 05:59:18;;;;;;;4.40;4.10;;;;;;;16.21;69.35;100841.22;4970682;28;20022;-73
2022/06/06 06:02:23;;;;;;;4.28;3.70;;;;;;;16.21;70.27;100843.91;4970393;28;20025;-73
2022/06/06 06:05:07;;;;;;;4.05;3.70;;;;;;;16.29;69.52;100849.22;4938734;28;20018;-73
2022/06/06 06:07:54;;;;;;;4.15;3.83;;;;;;;16.43;69.48;100835.13;4953398;28;20036;-73
2022/06/06 06:10:19;;;;;;;3.83;3.53;;;;;;;16.64;69.32;100839.06;4953992;28;20142;-73
2022/06/06 06:12:52;;;;;;;3.87;3.50;;;;;;;16.80;68.90;100844.31;4971965;28;20284;-75
2022/06/06 06:15:29;;;;;;;5.47;3.60;;;;;;;16.80;69.23;100836.28;4978622;28;20325;-74
2022/06/06 06:17:55;;;;;;;3.78;3.47;;;;;;;16.93;68.38;100832.25;4982614;28;20725;-74
2022/06/06 06:20:26;;;;;;;3.58;3.33;;;;;;;16.81;67.67;100845.97;4953101;28;20399;-74
2022/06/06 06:22:56;;;;;;;3.33;3.13;;;;;;;16.79;66.56;100844.47;4972016;28;20912;-74
2022/06/06 06:25:23;;;;;;;3.25;3.05;;;;;;;16.71;65.89;100863.22;4961687;28;20547;-73
2022/06/06 06:27:48;;;;;;;2.97;2.78;;;;;;;16.68;64.76;100853.72;4935532;28;20018;-73
2022/06/06 06:30:14;;;;;;;3.03;2.83;;;;;;;16.68;66.19;100860.91;4943083;28;20014;-73
2022/06/06 06:33:20;;;;;;;3.17;2.88;;;;;;;16.63;65.99;100866.78;4949060;28;20015;-73
2022/06/06 06:36:00;;;;;;;3.13;2.90;;;;;;;16.73;64.84;100862.06;4972641;28;20546;-74
2022/06/06 06:38:54;;;;;;;3.72;3.10;;;;;;;16.96;63.44;100867.50;4962101;28;20991;-73
2022/06/06 06:42:04;;;;;;;4.82;2.97;;;;;;;17.36;63.21;100872.75;4953545;28;20053;-73
2022/06/06 06:44:59;;;;;;;2.90;2.08;;;;;;;17.45;59.38;100884.22;4957169;28;20313;-73
2022/06/06 06:47:29;;;;;;;2.28;1.90;;;;;;;17.44;59.88;100859.31;4929788;28;20049;-74
2022/06/06 06:50:21;;;;;;;2.13;2.03;;;;;;;17.51;59.95;100864.75;4936053;28;20945;-72
2022/06/06 06:53:24;;;;;;;2.00;1.80;;;;;;;17.54;58.05;100874.28;4940568;28;20006;-73
2022/06/06 06:56:15;;;;;;;1.90;1.80;;;;;;;17.39;58.48;100868.91;4980224;28;20125;-73
2022/06/06 06:59:10;;;;;;;2.08;1.98;;;;;;;17.34;58.58;100874.75;4968796;28;20018;-72
2022/06/06 07:08:33;;;;;;;3.53;1.75;;;;;;;17.38;57.92;100884.09;4960920;28;20012;-75
2022/06/06 07:10:58;;;;;;;3.28;1.80;;;;;;;17.45;58.27;100882.38;4944744;28;20706;-73
2022/06/06 07:13:30;;;;;;;2.40;1.70;;;;;;;17.43;58.78;100881.72;4962364;28;20068;-74
2022/06/06 07:16:03;;;;;;;2.67;1.70;;;;;;;17.42;58.47;100872.03;4962481;28;20040;-74
2022/06/06 07:18:31;;;;;;;2.05;1.73;;;;;;;17.23;57.78;100884.03;4953056;28;20060;-73
2022/06/06 07:20:57;;;;;;;1.98;1.70;;;;;;;17.29;56.91;100890.53;4928747;28;20018;-74
2022/06/06 07:23:22;;;;;;;2.25;1.70;;;;;;;17.24;57.52;100887.53;4932047;28;20003;-74
2022/06/06 07:25:48;;;;;;;2.00;1.90;;;;;;;17.34;58.26;100890.81;4959860;28;20088;-77
2022/06/06 07:28:24;;;;;;;1.77;1.65;;;;;;;17.25;56.93;100886.53;4963896;28;20014;-73
2022/06/06 07:30:57;;;;;;;1.95;1.85;;;;;;;17.56;59.00;100875.75;4963167;28;20020;-75
2022/06/06 07:33:28;;;;;;;1.67;1.58;;;;;;;17.75;55.21;100882.44;4966302;28;20030;-73
2022/06/06 07:36:06;;;;;;;1.17;1.08;;;;;;;18.02;54.36;100874.88;4981007;28;20388;-74
2022/06/06 07:38:58;;;;;;;1.27;1.15;;;;;;;18.25;53.49;100882.03;4984523;28;20049;-72
2022/06/06 07:41:27;;;;;;;0.82;0.82;;;;;;;18.21;51.90;100888.78;4976114;28;20040;-74
2022/06/06 07:44:14;;;;;;;1.08;1.08;;;;;;;18.00;52.08;100882.28;4980200;28;20010;-75
2022/06/06 07:46:55;;;;;;;1.40;1.30;;;;;;;18.08;52.73;100889.38;4975971;28;20049;-73
2022/06/06 07:49:35;;;;;;;1.35;1.10;;;;;;;18.02;52.78;100886.44;4992365;28;20236;-74
2022/06/06 07:52:07;;;;;;;1.30;1.20;;;;;;;18.30;52.53;100884.97;4963265;28;20033;-74
2022/06/06 07:54:39;;;;;;;1.25;1.20;;;;;;;18.46;52.18;100884.78;4979583;28;20060;-74
2022/06/06 07:57:17;;;;;;;2.95;1.30;;;;;;;18.69;51.25;100878.50;4985178;28;20026;-72
2022/06/06 08:00:19;;;;;;;1.52;1.40;;;;;;;18.82;51.17;100880.50;4996129;28;20120;-75
2022/06/06 08:03:15;;;;;;;3.50;1.40;;;;;;;18.83;51.46;100876.81;4967512;28;20006;-75
2022/06/06 08:06:08;;;;;;;2.50;1.40;;;;;;;18.75;51.17;100863.50;4994775;28;20809;-76
2022/06/06 08:08:38;;;;;;;1.60;1.50;;;;;;;18.83;51.52;100871.44;4961573;28;21050;-76
2022/06/06 08:11:45;;;;;;;1.40;1.30;;;;;;;18.73;50.31;100874.41;4970420;28;20019;-75
2022/06/06 08:14:17;;;;;;;1.23;1.20;;;;;;;18.71;51.17;100871.06;4914843;28;20054;-74
2022/06/06 08:17:02;;;;;;;1.63;1.10;;;;;;;19.02;49.83;100872.72;4944577;28;20029;-75
2022/06/06 08:19:49;;;;;;;1.48;1.38;;;;;;;19.24;51.01;100862.84;4953497;28;20022;-75
2022/06/06 08:22:15;;;;;;;2.67;1.50;;;;;;;19.49;49.94;100852.56;4961500;28;20087;-74
2022/06/06 08:24:45;;;;;;;1.50;1.08;;;;;;;19.56;49.87;100864.16;4935652;28;20916;-75
2022/06/06 08:27:13;;;;;;;1.75;1.25;;;;;;;19.56;49.40;100850.75;4965439;28;20381;-73
2022/06/06 08:29:39;;;;;;;4.03;1.30;;;;;;;19.76;50.70;100849.25;4940653;28;20546;-76
2022/06/06 08:32:08;;;;;;;3.72;1.40;;;;;;;19.88;50.36;100851.25;4957677;28;20011;-72
2022/06/06 08:34:33;;;;;;;1.35;1.10;;;;;;;19.95;49.98;100858.50;4946488;28;20014;-74
2022/06/06 08:37:36;;;;;;;0.77;0.77;;;;;;;19.82;47.39;100852.00;4911751;28;20089;-74
2022/06/06 08:40:39;;;;;;;1.20;1.10;;;;;;;20.03;48.57;100836.88;4947950;28;20053;-76
2022/06/06 08:43:26;;;;;;;0.90;0.90;;;;;;;19.98;48.29;100850.06;4949021;28;20121;-74
2022/06/06 08:46:10;;;;;;;1.30;0.77;;;;;;;19.92;46.35;100865.09;4981145;28;20121;-73
2022/06/06 08:49:00;;;;;;;1.25;0.82;;;;;;;19.90;46.95;100867.16;4977556;28;20038;-74
2022/06/06 08:51:51;;;;;;;0.70;0.70;;;;;;;19.85;47.95;100858.84;4987670;28;20017;-74
2022/06/06 08:54:16;;;;;;;0.80;0.80;;;;;;;19.81;47.86;100858.44;4958175;28;20022;-74
2022/06/06 08:57:01;;;;;;;0.75;0.75;;;;;;;19.78;46.78;100848.03;4974207;28;20905;-74
2022/06/06 08:59:54;;;;;;;3.42;0.90;;;;;;;19.92;46.78;100843.59;4963820;28;20344;-74
2022/06/06 09:02:19;;;;;;;1.58;0.70;;;;;;;19.76;46.59;100855.44;4976172;28;20434;-74
2022/06/06 09:05:22;;;;;;;3.17;0.80;;;;;;;19.85;45.14;100846.25;4996968;28;20124;-73
2022/06/06 09:08:03;;;;;;;3.67;0.60;;;;;;;20.13;45.38;100853.47;4984543;28;20614;-75
2022/06/06 09:11:03;;;;;;;1.00;0.95;;;;;;;20.05;45.62;100845.53;4967168;28;20323;-73
2022/06/06 09:13:34;;;;;;;0.63;0.63;;;;;;;19.75;46.12;100840.34;4980997;28;20288;-75
2022/06/06 09:16:18;;;;;;;2.38;0.75;;;;;;;19.71;46.64;100836.41;4982065;28;20030;-75
2022/06/06 09:19:06;;;;;;;0.80;0.60;;;;;;;20.13;45.83;100826.59;4995982;28;20270;-74
2022/06/06 09:22:10;;;;;;;1.48;0.73;;;;;;;20.81;46.20;100828.56;4983567;28;20064;-76
2022/06/06 09:24:45;;;;;;;1.67;0.90;;;;;;;20.84;44.27;100835.41;4958881;28;20022;-76
2022/06/06 09:27:41;;;;;;;1.08;0.82;;;;;;;20.40;43.40;100840.16;4978764;28;20018;-75
2022/06/06 09:30:21;;;;;;;0.65;0.65;;;;;;;20.65;42.38;100828.91;4981602;28;20022;-74
2022/06/06 09:32:59;;;;;;;1.45;0.60;;;;;;;20.65;43.75;100826.22;4983179;28;20408;-74
2022/06/06 09:35:45;;;;;;;1.52;0.80;;;;;;;20.47;45.53;100822.19;4998814;28;20344;-75
2022/06/06 09:38:32;;;;;;;0.80;0.70;;;;;;;20.21;45.59;100829.13;4951213;28;20585;-73
2022/06/06 09:41:06;;;;;;;1.92;0.57;;;;;;;19.86;48.45;100837.16;5001960;28;20129;-76
2022/06/06 09:43:33;;;;;;;1.08;0.80;;;;;;;19.53;50.78;100839.56;4967055;28;20860;-74
2022/06/06 09:46:29;;;;;;;1.40;0.80;;;;;;;19.15;54.87;100864.81;4969531;28;20249;-74
2022/06/06 09:49:13;;;;;;;1.25;0.55;;;;;;;18.44;57.56;100876.09;4964194;28;20337;-73
2022/06/06 09:51:52;;;;;;;3.08;1.23;;;;;;;17.99;62.25;100869.88;4976675;28;20347;-75
2022/06/06 10:00:38;;;;;;;1.00;0.95;;;;;;;17.56;68.19;100866.91;4983039;28;20037;-74
2022/06/06 10:03:22;;;;;;;4.03;1.00;;;;;;;17.61;70.30;100869.88;4981991;28;20316;-74
2022/06/06 10:06:05;;;;;;;1.17;1.00;;;;;;;17.49;68.18;100869.47;4983405;28;20084;-75
2022/06/06 10:09:10;;;;;;;1.33;1.20;;;;;;;17.92;71.98;100863.59;4984459;28;20354;-75
2022/06/06 10:11:41;;;;;;;1.33;1.30;;;;;;;19.14;72.12;100855.09;4964825;28;20378;-75
2022/06/06 10:14:09;;;;;;;2.22;1.20;;;;;;;20.12;69.30;100846.41;4962298;28;20054;-75
2022/06/06 10:16:44;;;;;;;0.80;0.80;;;;;;;20.74;60.33;100850.06;4985183;28;20091;-75
2022/06/06 10:19:55;;;;;;;1.40;0.80;;;;;;;20.91;60.07;100831.72;4983723;28;20022;-75
2022/06/06 10:22:29;;;;;;;1.13;1.13;;;;;;;20.95;57.96;100845.56;4978199;28;20018;-74
2022/06/06 10:24:57;;;;;;;1.10;1.08;;;;;;;21.24;59.30;100843.56;5002335;28;20046;-75
2022/06/06 10:27:38;;;;;;;1.33;1.10;;;;;;;21.49;55.70;100841.09;5000814;28;20405;-76
2022/06/06 10:30:41;;;;;;;2.75;1.13;;;;;;;22.08;58.22;100841.28;5006589;28;20025;-73
2022/06/06 10:33:30;;;;;;;1.08;0.90;;;;;;;22.44;58.76;100831.88;4992756;28;20470;-73
2022/06/06 10:36:18;;;;;;;1.08;1.00;;;;;;;22.15;54.26;100847.47;4991246;28;20017;-72
2022/06/06 10:38:44;;;;;;;1.35;0.77;;;;;;;21.32;50.15;100834.44;5007992;28;20224;-74
2022/06/06 10:41:12;;;;;;;0.85;0.85;;;;;;;21.07;50.28;100835.88;4983786;28;20797;-74
2022/06/06 10:43:59;;;;;;;0.70;0.70;;;;;;;20.68;49.61;100841.97;4976838;28;20103;-75
2022/06/06 10:46:40;;;;;;;0.80;0.80;;;;;;;20.54;50.19;100847.25;4991989;28;20014;-75
2022/06/06 10:49:44;;;;;;;0.60;0.60;;;;;;;20.22;52.16;100852.28;4978594;28;20018;-74
2022/06/06 10:52:36;;;;;;;1.13;1.08;;;;;;;20.46;53.14;100847.44;4982159;28;19998;-74
2022/06/06 10:55:25;;;;;;;0.80;0.77;;;;;;;20.39;50.44;100854.63;4956115;28;20009;-73
2022/06/06 10:57:51;;;;;;;1.23;0.70;;;;;;;20.13;49.43;100858.84;5005317;28;20017;-76
2022/06/06 11:00:26;;;;;;;0.75;0.75;;;;;;;19.92;50.44;100853.53;4990323;28;20080;-75
2022/06/06 11:03:22;;;;;;;0.70;0.70;;;;;;;19.82;51.50;100841.25;4970447;28;20437;-75
2022/06/06 11:06:22;;;;;;;0.90;0.70;;;;;;;19.64;53.07;100848.94;4948946;28;20078;-75
2022/06/06 11:09:03;;;;;;;0.50;0.50;;;;;;;19.55;52.72;100843.72;4939999;28;20162;-75
2022/06/06 11:12:06;;;;;;;1.27;0.70;;;;;;;19.76;53.29;100836.66;4953515;28;20608;-75
2022/06/06 11:14:36;;;;;;;0.63;0.63;;;;;;;19.95;53.81;100834.34;4980554;28;20157;-74
2022/06/06 11:17:39;;;;;;;0.88;0.88;;;;;;;20.26;53.47;100825.81;5019280;28;20049;-75
2022/06/06 11:20:52;;;;;;;1.60;0.80;;;;;;;20.45;52.96;100834.19;4957433;28;20092;-74
2022/06/06 11:23:28;;;;;;;1.77;0.68;;;;;;;20.55;51.38;100823.91;4958254;28;20049;-75
2022/06/06 11:26:24;;;;;;;0.50;0.50;;;;;;;20.78;49.91;100822.78;4957747;28;20061;-76
2022/06/06 11:28:55;;;;;;;1.45;0.57;;;;;;;20.89;49.60;100825.69;4980451;28;20119;-75
2022/06/06 11:31:27;;;;;;;4.35;0.80;;;;;;;21.17;51.05;100821.22;4979489;28;20030;-75
2022/06/06 11:34:23;;;;;;;0.73;0.50;;;;;;;21.51;51.12;100817.47;4944210;28;20901;-74
2022/06/06 11:36:58;;;;;;;0.52;0.43;;;;;;;22.17;47.48;100825.69;4955075;28;20049;-73
2022/06/06 11:39:50;;;;;;;0.82;0.70;;;;;;;22.46;45.61;100827.09;4975437;28;20203;-73
2022/06/06 11:42:38;;;;;;;0.50;0.50;;;;;;;23.44;45.48;100819.69;4968714;28;20065;-73
2022/06/06 11:45:12;;;;;;;1.08;0.70;;;;;;;23.94;43.33;100806.13;4975157;28;20074;-77
2022/06/06 11:48:19;;;;;;;0.50;0.50;;;;;;;24.06;40.97;100811.63;4980220;28;20010;-77
2022/06/06 11:51:09;;;;;;;0.45;0.45;;;;;;;24.42;39.60;100809.13;4917356;28;20069;-75
2022/06/06 11:54:03;;;;;;;0.60;0.60;;;;;;;24.78;39.48;100802.03;4946519;28;20115;-76
2022/06/06 11:57:13;;;;;;;1.38;0.60;;;;;;;25.18;38.94;100801.41;4973015;28;20066;-74
2022/06/06 11:59:50;;;;;;;0.60;0.60;;;;;;;24.26;39.07;100789.75;4952079;28;20011;-76
2022/06/06 12:02:34;;;;;;;0.50;0.50;;;;;;;24.78;38.12;100792.03;4954880;28;20161;-76
2022/06/06 12:05:09;;;;;;;0.60;0.60;;;;;;;24.51;39.47;100794.25;4955998;28;20007;-77
2022/06/06 12:08:28;;;;;;;0.50;0.50;;;;;;;23.87;39.72;100797.25;5009911;28;20017;-75
2022/06/06 12:11:20;;;;;;;0.80;0.80;;;;;;;23.84;39.26;100781.47;4939238;28;20030;-75
2022/06/06 12:13:58;;;;;;;1.55;0.70;;;;;;;23.54;39.24;100781.38;4937334;28;20021;-72
2022/06/06 12:16:29;;;;;;;1.00;1.00;;;;;;;24.25;38.56;100782.69;4992136;28;20072;-73
2022/06/06 12:19:15;;;;;;;3.08;0.70;;;;;;;25.17;37.30;100778.94;4991293;28;20022;-74
2022/06/06 12:21:54;;;;;;;2.45;0.60;;;;;;;25.07;36.76;100777.84;5009921;28;20083;-74
2022/06/06 12:24:25;;;;;;;0.77;0.60;;;;;;;24.95;35.48;100775.13;4993654;28;20988;-75
2022/06/06 12:27:15;;;;;;;0.70;0.70;;;;;;;25.09;35.11;100765.75;4991909;28;20014;-75
2022/06/06 12:29:59;;;;;;;0.60;0.60;;;;;;;24.89;36.99;100771.47;5011758;28;20948;-74
2022/06/06 12:32:24;;;;;;;;;;;;;;;24.30;37.31;100768.50;5012130;28;20010;-73
2022/06/06 12:35:03;;;;;;;0.80;0.80;;;;;;;25.11;37.87;100773.63;5010594;28;19900;-74
2022/06/06 12:37:50;;;;;;;1.70;0.75;;;;;;;24.60;36.66;100765.00;4976248;28;20055;-74